Time;durP1;ratioP1;P1;durP2;ratioP2;P2;SDS_P1;SDS_P2;PMS_P1;PMS_P2;Temp;Humidity;BMP_temperature;BMP_pressure;BME280_temperature;BME280_humidity;BME280_pressure;Samples;Min_cycle;Max_cycle;Signal;HPM_P1;HPM_P2
2022/11/05 00:10:35;;;;;;;482.88;438.05;;;;;;;8.62;100.00;97131.69;7381219;19;20014;-52
2022/11/05 00:19:05;;;;;;;478.00;431.70;;;;;;;8.81;100.00;97134.69;7374374;19;20047;-52
2022/11/05 00:27:10;;;;;;;488.15;442.33;;;;;;;8.99;100.00;97162.25;7380283;19;20259;-56
2022/11/05 00:29:43;;;;;;;474.15;429.40;;;;;;;9.16;100.00;97153.19;7387543;19;20015;-51
2022/11/05 00:32:16;;;;;;;483.98;439.23;;;;;;;9.30;100.00;97160.91;7383922;19;20474;-50
2022/11/05 00:34:52;;;;;;;479.98;433.60;;;;;;;9.26;100.00;97164.69;7383496;19;20006;-50
2022/11/05 00:37:26;;;;;;;462.42;418.65;;;;;;;9.21;100.00;97177.28;7385841;19;20074;-48
2022/11/05 00:39:59;;;;;;;468.95;423.65;;;;;;;9.09;100.00;97180.78;7378652;19;20025;-50
2022/11/05 00:45:18;;;;;;;455.35;411.40;;;;;;;9.38;100.00;97171.69;7382425;19;20002;-55
2022/11/05 00:50:40;;;;;;;463.73;419.02;;;;;;;9.04;100.00;97180.28;7383440;19;20011;-59
2022/11/05 00:53:13;;;;;;;460.20;416.27;;;;;;;9.22;100.00;97182.44;7386226;19;20031;-49
2022/11/05 00:55:48;;;;;;;468.98;423.85;;;;;;;9.16;100.00;97171.53;7385162;19;20024;-48
2022/11/05 00:58:27;;;;;;;471.63;425.58;;;;;;;9.16;100.00;97184.66;7385389;19;21154;-49
2022/11/05 01:01:01;;;;;;;;;;;;;;;9.18;100.00;97188.00;7387581;19;20351;-51
2022/11/05 01:03:37;;;;;;;475.23;428.65;;;;;;;9.30;100.00;97181.91;7381230;19;19926;-51
2022/11/05 01:06:18;;;;;;;459.00;414.60;;;;;;;9.25;100.00;97176.13;7386294;19;20031;-50
2022/11/05 01:08:52;;;;;;;471.45;425.70;;;;;;;9.02;100.00;97180.38;7378581;19;20691;-57
2022/11/05 01:11:35;;;;;;;446.35;402.88;;;;;;;9.04;100.00;97188.97;7382495;19;20351;-56
2022/11/05 01:14:12;;;;;;;443.80;400.25;;;;;;;9.04;100.00;97173.22;7379273;19;20027;-59
2022/11/05 01:16:46;;;;;;;442.08;399.00;;;;;;;9.15;100.00;97183.00;7381574;19;20018;-51
2022/11/05 01:19:19;;;;;;;438.15;394.80;;;;;;;8.84;100.00;97183.44;7385844;19;20011;-50
2022/11/05 01:21:55;;;;;;;478.75;432.63;;;;;;;8.91;100.00;97184.69;7378581;19;20017;-50
2022/11/05 01:24:29;;;;;;;462.65;418.38;;;;;;;8.87;100.00;97185.84;7388207;19;20462;-53
2022/11/05 01:27:02;;;;;;;475.70;429.95;;;;;;;8.65;100.00;97185.66;7385606;19;20011;-52
2022/11/05 01:29:35;;;;;;;468.58;423.73;;;;;;;8.75;100.00;97189.34;7390198;19;20023;-51
2022/11/05 01:32:08;;;;;;;469.10;424.13;;;;;;;8.87;100.00;97191.94;7390035;19;20079;-50
2022/11/05 01:34:42;;;;;;;457.00;412.05;;;;;;;8.82;100.00;97188.78;7388641;19;20498;-51
2022/11/05 01:37:17;;;;;;;449.02;405.52;;;;;;;8.97;100.00;97181.66;7394075;19;20340;-52
2022/11/05 01:39:51;;;;;;;473.63;428.20;;;;;;;8.80;100.00;97185.44;7385995;19;20010;-58
2022/11/05 01:42:27;;;;;;;460.25;415.85;;;;;;;8.83;100.00;97189.63;7393389;19;20011;-48
2022/11/05 01:45:05;;;;;;;465.70;421.02;;;;;;;8.75;100.00;97195.41;7391059;19;20336;-52
2022/11/05 01:47:48;;;;;;;466.92;422.40;;;;;;;8.50;100.00;97190.19;7392025;19;20041;-51
2022/11/05 01:50:37;;;;;;;468.08;423.02;;;;;;;8.56;100.00;97202.03;7390573;19;20356;-52
2022/11/05 01:53:27;;;;;;;473.83;428.63;;;;;;;8.50;100.00;97200.66;7392904;19;20011;-48
2022/11/05 01:56:06;;;;;;;472.10;425.60;;;;;;;8.53;100.00;97207.47;7383368;19;20365;-53
2022/11/05 01:58:45;;;;;;;465.02;420.10;;;;;;;8.73;100.00;97206.94;7391796;19;20039;-52
2022/11/05 02:01:18;;;;;;;477.33;431.00;;;;;;;8.53;100.00;97220.56;7382879;19;20033;-52
2022/11/05 02:03:54;;;;;;;466.10;421.70;;;;;;;8.66;100.00;97224.00;7391164;19;20345;-53
2022/11/05 02:06:27;;;;;;;464.23;419.48;;;;;;;8.46;100.00;97235.03;7392487;19;20083;-49
2022/11/05 02:09:08;;;;;;;466.67;421.27;;;;;;;8.24;100.00;97231.19;7390456;19;20121;-51
2022/11/05 02:11:41;;;;;;;452.20;407.40;;;;;;;8.29;100.00;97234.38;7390677;19;20495;-53
2022/11/05 02:14:17;;;;;;;468.90;422.73;;;;;;;8.52;100.00;97234.63;7387074;19;20044;-52
2022/11/05 02:16:57;;;;;;;462.90;417.73;;;;;;;8.11;100.00;97226.88;7390387;19;20338;-51
2022/11/05 02:19:54;;;;;;;473.73;427.15;;;;;;;8.11;100.00;97242.59;7386552;19;20010;-49
2022/11/05 02:23:07;;;;;;;441.88;398.65;;;;;;;8.46;100.00;97225.38;7388201;19;20500;-58
2022/11/05 02:26:17;;;;;;;458.00;414.08;;;;;;;8.23;100.00;97234.78;7389171;19;20018;-49
2022/11/05 02:29:13;;;;;;;449.50;405.70;;;;;;;8.19;100.00;97245.53;7390593;19;20017;-48
2022/11/05 02:31:57;;;;;;;467.17;422.75;;;;;;;8.14;100.00;97253.72;7388429;19;20032;-52
2022/11/05 02:34:38;;;;;;;478.63;432.30;;;;;;;8.29;100.00;97241.38;7383101;19;20017;-54
2022/11/05 02:37:19;;;;;;;454.75;410.35;;;;;;;8.11;100.00;97235.59;7388202;19;20019;-53
2022/11/05 02:40:01;;;;;;;469.25;422.92;;;;;;;8.11;100.00;97253.06;7384630;19;20020;-52
2022/11/05 02:42:45;;;;;;;458.42;413.83;;;;;;;7.90;100.00;97267.50;7388866;19;20029;-51
2022/11/05 02:45:37;;;;;;;447.05;402.42;;;;;;;7.76;100.00;97249.25;7389243;19;20030;-49
2022/11/05 02:48:19;;;;;;;441.80;397.98;;;;;;;7.96;100.00;97267.13;7389417;19;20418;-59
2022/11/05 02:50:59;;;;;;;435.83;392.87;;;;;;;8.03;100.00;97274.50;7392195;19;20021;-48
2022/11/05 02:53:42;;;;;;;470.08;425.67;;;;;;;8.16;100.00;97267.53;7389680;19;20535;-59
2022/11/05 02:56:19;;;;;;;457.90;413.75;;;;;;;8.19;100.00;97269.09;7388183;19;20021;-50
2022/11/05 02:58:53;;;;;;;449.15;404.27;;;;;;;7.94;100.00;97282.06;7389543;19;20018;-58
2022/11/05 03:01:26;;;;;;;454.65;410.00;;;;;;;8.03;100.00;97279.72;7391078;19;20015;-52
2022/11/05 03:04:04;;;;;;;460.52;415.60;;;;;;;7.65;100.00;97277.88;7387606;19;20034;-50
2022/11/05 03:07:01;;;;;;;478.30;431.20;;;;;;;7.44;100.00;97269.63;7386028;19;20007;-52
2022/11/05 03:10:04;;;;;;;461.52;416.73;;;;;;;7.62;100.00;97276.28;7386283;19;20015;-58
2022/11/05 03:12:45;;;;;;;465.92;420.85;;;;;;;7.61;100.00;97287.69;7381852;19;20049;-51
2022/11/05 03:15:28;;;;;;;467.27;421.77;;;;;;;7.79;100.00;97281.28;7383620;19;21024;-53
2022/11/05 03:18:09;;;;;;;454.42;409.65;;;;;;;7.84;100.00;97294.91;7383618;19;20018;-52
2022/11/05 03:20:52;;;;;;;451.65;407.88;;;;;;;7.83;100.00;97293.25;7384766;19;20006;-49
2022/11/05 03:23:34;;;;;;;444.50;400.80;;;;;;;7.67;100.00;97310.84;7384014;19;20011;-55
2022/11/05 03:26:16;;;;;;;442.52;399.45;;;;;;;7.65;100.00;97314.50;7385950;19;20451;-48
2022/11/05 03:28:54;;;;;;;457.52;412.75;;;;;;;7.65;100.00;97325.81;7382417;19;20015;-59
2022/11/05 03:31:30;;;;;;;471.70;426.77;;;;;;;7.77;100.00;97326.81;7384205;19;20543;-49
2022/11/05 03:34:05;;;;;;;448.85;404.42;;;;;;;7.65;100.00;97317.94;7384689;19;20011;-48
2022/11/05 03:36:46;;;;;;;471.15;425.25;;;;;;;7.46;100.00;97330.50;7383317;19;20021;-50
2022/11/05 03:39:24;;;;;;;445.42;400.98;;;;;;;7.68;100.00;97349.16;7385262;19;20010;-56
2022/11/05 03:41:59;;;;;;;458.80;412.83;;;;;;;7.83;100.00;97347.34;7383226;19;20010;-57
2022/11/05 03:44:38;;;;;;;446.67;402.92;;;;;;;7.72;100.00;97348.03;7385182;19;20010;-50
2022/11/05 03:47:14;;;;;;;455.23;410.08;;;;;;;7.62;100.00;97351.34;7378511;19;20017;-52
2022/11/05 03:49:58;;;;;;;441.17;397.85;;;;;;;7.82;100.00;97340.44;7386967;19;20010;-52
2022/11/05 03:52:37;;;;;;;453.35;407.70;;;;;;;7.59;100.00;97344.53;7381074;19;20013;-48
2022/11/05 03:55:12;;;;;;;458.73;414.30;;;;;;;7.82;100.00;97346.53;7385427;19;20044;-48
2022/11/05 03:57:49;;;;;;;464.15;418.85;;;;;;;7.58;100.00;97339.38;7383353;19;20466;-53
2022/11/05 04:00:23;;;;;;;465.33;420.13;;;;;;;7.67;100.00;97338.78;7387523;19;20010;-48
2022/11/05 04:02:56;;;;;;;460.00;415.15;;;;;;;7.59;100.00;97334.06;7388573;19;20014;-52
2022/11/05 04:05:29;;;;;;;471.90;425.80;;;;;;;7.53;100.00;97321.34;7383184;19;20028;-48
2022/11/05 04:13:37;;;;;;;449.95;405.98;;;;;;;7.45;100.00;97336.69;7384984;19;20367;-48
2022/11/05 04:18:56;;;;;;;;;;;;;;;7.39;100.00;97371.03;7386440;19;20010;-49
2022/11/05 04:24:21;;;;;;;437.95;394.05;;;;;;;7.53;100.00;97355.34;7386335;19;20399;-48
2022/11/05 04:26:54;;;;;;;454.98;409.75;;;;;;;7.72;100.00;97353.28;7384912;19;20458;-47
2022/11/05 04:32:13;;;;;;;457.58;412.08;;;;;;;7.45;100.00;97364.59;7378806;19;20018;-49
2022/11/05 04:34:46;;;;;;;448.80;404.75;;;;;;;7.52;100.00;97369.38;7384930;19;20490;-50
2022/11/05 04:37:19;;;;;;;453.75;408.75;;;;;;;7.80;100.00;97374.56;7381662;19;20010;-58
2022/11/05 04:39:55;;;;;;;462.40;417.25;;;;;;;7.60;100.00;97377.59;7385171;19;20506;-48
2022/11/05 04:42:28;;;;;;;454.58;409.95;;;;;;;7.78;100.00;97379.06;7385418;19;20015;-49
2022/11/05 04:45:02;;;;;;;467.13;421.23;;;;;;;7.69;100.00;97382.25;7382759;19;20027;-49
2022/11/05 04:47:35;;;;;;;447.42;402.98;;;;;;;7.57;100.00;97377.78;7386661;19;20338;-51
2022/11/05 04:50:10;;;;;;;443.23;398.75;;;;;;;7.63;100.00;97369.56;7383209;19;20019;-58
2022/11/05 04:52:44;;;;;;;435.60;391.90;;;;;;;7.59;100.00;97375.06;7384634;19;20014;-48
2022/11/05 04:55:20;;;;;;;447.70;403.65;;;;;;;7.54;100.00;97377.94;7384298;19;20074;-47
2022/11/05 04:57:54;;;;;;;460.05;414.85;;;;;;;7.68;100.00;97366.63;7381920;19;20018;-50
2022/11/05 05:00:29;;;;;;;470.70;425.25;;;;;;;7.48;100.00;97367.88;7384066;19;20033;-51
2022/11/05 05:03:02;;;;;;;472.80;426.25;;;;;;;7.20;100.00;97378.31;7378700;19;20014;-50
2022/11/05 05:05:35;;;;;;;451.08;406.40;;;;;;;7.34;100.00;97383.56;7384053;19;20077;-47
2022/11/05 05:08:12;;;;;;;451.00;405.80;;;;;;;7.55;100.00;97384.84;7384286;19;20014;-50
2022/11/05 05:10:48;;;;;;;449.27;404.17;;;;;;;7.56;100.00;97383.94;7380986;19;20099;-51
2022/11/05 05:13:21;;;;;;;449.73;404.75;;;;;;;7.51;100.00;97404.28;7383584;19;20439;-48
2022/11/05 05:15:54;;;;;;;451.63;406.10;;;;;;;7.47;100.00;97405.41;7380318;19;20006;-48
2022/11/05 05:18:28;;;;;;;438.80;394.80;;;;;;;7.61;100.00;97407.19;7383061;19;20003;-48
2022/11/05 05:23:49;;;;;;;446.73;402.25;;;;;;;7.27;100.00;97413.63;7385570;19;20475;-48
2022/11/05 05:26:25;;;;;;;446.20;401.27;;;;;;;7.11;100.00;97401.56;7385567;19;20014;-48
2022/11/05 05:28:58;;;;;;;466.27;420.13;;;;;;;7.28;100.00;97393.56;7385454;19;20010;-54
2022/11/05 05:31:31;;;;;;;478.70;432.02;;;;;;;7.30;100.00;97408.22;7381719;19;20018;-48
2022/11/05 05:34:04;;;;;;;476.42;428.85;;;;;;;7.20;100.00;97411.47;7377445;19;20014;-48
2022/11/05 05:36:38;;;;;;;512.72;463.50;;;;;;;7.44;100.00;97426.56;7384749;19;20518;-48
2022/11/05 05:39:11;;;;;;;478.30;430.98;;;;;;;7.39;100.00;97427.75;7383335;19;20026;-48
2022/11/05 05:41:47;;;;;;;493.63;445.52;;;;;;;7.14;100.00;97430.13;7383638;19;20015;-47
2022/11/05 05:44:20;;;;;;;484.05;437.73;;;;;;;7.23;100.00;97443.50;7384733;19;20028;-49
2022/11/05 05:46:54;;;;;;;492.35;443.20;;;;;;;7.44;100.00;97442.25;7380223;19;20014;-47
2022/11/05 05:49:27;;;;;;;482.75;436.73;;;;;;;7.36;100.00;97438.41;7384164;19;20081;-47
2022/11/05 05:52:00;;;;;;;502.67;454.80;;;;;;;7.58;100.00;97450.09;7383020;19;20409;-52
2022/11/05 05:54:34;;;;;;;500.33;451.25;;;;;;;7.47;100.00;97455.13;7383012;19;20678;-50
2022/11/05 05:57:09;;;;;;;483.10;436.40;;;;;;;7.53;100.00;97454.75;7384295;19;20356;-52
2022/11/05 05:59:43;;;;;;;481.23;433.42;;;;;;;7.50;100.00;97454.13;7370852;19;20355;-48
2022/11/05 06:02:16;;;;;;;471.27;425.17;;;;;;;7.42;100.00;97451.09;7382717;19;20010;-49
2022/11/05 06:04:49;;;;;;;477.77;431.13;;;;;;;7.85;100.00;97466.75;7382285;19;20011;-49
2022/11/05 06:07:23;;;;;;;492.38;444.88;;;;;;;7.71;100.00;97481.59;7378664;19;20014;-48
2022/11/05 06:09:56;;;;;;;499.73;452.40;;;;;;;7.56;100.00;97492.97;7381116;19;20010;-47
2022/11/05 06:12:34;;;;;;;507.58;459.38;;;;;;;7.32;100.00;97492.66;7381858;19;20030;-57
2022/11/05 06:15:07;;;;;;;507.10;459.30;;;;;;;7.47;100.00;97486.50;7389100;19;20010;-48
2022/11/05 06:17:40;;;;;;;503.55;456.23;;;;;;;7.66;100.00;97494.94;7387237;19;20031;-47
2022/11/05 06:20:15;;;;;;;500.50;452.73;;;;;;;7.15;100.00;97498.03;7387424;19;20089;-47
2022/11/05 06:22:48;;;;;;;487.17;440.75;;;;;;;6.94;100.00;97493.16;7388941;19;20505;-48
2022/11/05 06:25:22;;;;;;;498.58;450.83;;;;;;;6.97;100.00;97493.84;7383735;19;20007;-50
2022/11/05 06:27:59;;;;;;;494.85;447.45;;;;;;;7.11;100.00;97490.44;7384310;19;20011;-48
2022/11/05 06:30:33;;;;;;;504.52;456.70;;;;;;;7.00;100.00;97483.22;7387502;19;20026;-55
2022/11/05 06:33:08;;;;;;;516.10;466.98;;;;;;;6.91;100.00;97499.41;7387020;19;21065;-48
2022/11/05 06:35:42;;;;;;;500.33;453.73;;;;;;;6.92;100.00;97511.53;7386360;19;20014;-51
2022/11/05 06:38:15;;;;;;;501.60;453.70;;;;;;;7.17;100.00;97518.84;7382701;19;20015;-49
2022/11/05 06:40:48;;;;;;;487.25;441.90;;;;;;;7.45;100.00;97525.00;7389320;19;20015;-48
2022/11/05 06:43:24;;;;;;;490.02;443.30;;;;;;;7.68;100.00;97529.72;7386680;19;20017;-51
2022/11/05 06:45:57;;;;;;;514.00;466.38;;;;;;;7.57;100.00;97536.50;7390027;19;20813;-49
2022/11/05 06:48:31;;;;;;;511.83;464.98;;;;;;;7.76;100.00;97539.75;7384183;19;20485;-50
2022/11/05 06:51:04;;;;;;;522.03;472.25;;;;;;;7.20;100.00;97550.88;7380249;19;20019;-47
2022/11/05 06:53:37;;;;;;;514.22;466.42;;;;;;;7.14;100.00;97548.63;7386343;19;20014;-49
2022/11/05 06:56:12;;;;;;;507.38;460.30;;;;;;;7.36;100.00;97559.53;7385784;19;20006;-49
2022/11/05 06:58:48;;;;;;;503.83;456.38;;;;;;;7.16;100.00;97569.44;7388252;19;20999;-49
2022/11/05 07:01:24;;;;;;;506.10;457.95;;;;;;;7.16;100.00;97567.69;7386559;19;20006;-48
2022/11/05 07:03:58;;;;;;;517.22;468.35;;;;;;;6.92;100.00;97570.84;7381299;19;20493;-47
2022/11/05 07:06:31;;;;;;;510.02;462.27;;;;;;;7.02;100.00;97577.22;7386205;19;20412;-47
2022/11/05 07:09:05;;;;;;;506.00;459.25;;;;;;;7.31;100.00;97579.03;7388676;19;20015;-59
2022/11/05 07:11:38;;;;;;;498.17;452.38;;;;;;;7.01;100.00;97589.47;7389548;19;20011;-47
2022/11/05 07:14:14;;;;;;;490.17;443.60;;;;;;;7.17;100.00;97592.91;7389512;19;20082;-48
2022/11/05 07:16:47;;;;;;;508.65;460.42;;;;;;;7.12;100.00;97602.78;7384114;19;20010;-48
2022/11/05 07:19:20;;;;;;;489.13;442.42;;;;;;;7.28;100.00;97608.00;7387048;19;20098;-53
2022/11/05 07:21:54;;;;;;;499.40;452.75;;;;;;;7.14;100.00;97613.97;7386776;19;20055;-49
2022/11/05 07:24:27;;;;;;;501.45;455.02;;;;;;;7.46;100.00;97609.53;7390325;19;20362;-47
2022/11/05 07:27:00;;;;;;;480.60;434.55;;;;;;;7.53;100.00;97623.97;7390920;19;20021;-50
2022/11/05 07:29:36;;;;;;;481.10;434.63;;;;;;;7.36;100.00;97611.00;7383707;19;20007;-47
2022/11/05 07:32:13;;;;;;;480.75;435.23;;;;;;;7.38;100.00;97614.38;7390948;19;20014;-46
2022/11/05 07:34:46;;;;;;;489.80;443.48;;;;;;;7.11;100.00;97619.41;7386038;19;20367;-57
2022/11/05 07:37:19;;;;;;;481.63;436.08;;;;;;;7.26;100.00;97626.38;7390519;19;20023;-48
2022/11/05 07:39:52;;;;;;;495.52;449.20;;;;;;;7.34;100.00;97618.09;7389251;19;20351;-47
2022/11/05 07:42:25;;;;;;;523.05;474.77;;;;;;;7.52;100.00;97611.81;7381818;19;20014;-47
2022/11/05 07:45:01;;;;;;;521.80;475.00;;;;;;;7.22;100.00;97608.34;7386292;19;21064;-48
2022/11/05 07:47:34;;;;;;;496.75;450.38;;;;;;;7.46;100.00;97613.00;7385699;19;20019;-55
2022/11/05 07:50:08;;;;;;;486.27;440.20;;;;;;;7.53;100.00;97626.56;7390213;19;20027;-50
2022/11/05 07:52:41;;;;;;;492.90;446.17;;;;;;;7.64;100.00;97632.88;7387419;19;20345;-49
2022/11/05 07:55:15;;;;;;;516.47;467.35;;;;;;;7.94;100.00;97618.00;7378592;19;20010;-47
2022/11/05 07:57:50;;;;;;;509.92;462.77;;;;;;;7.53;100.00;97631.81;7388265;19;20019;-48
2022/11/05 08:00:27;;;;;;;509.02;461.48;;;;;;;7.30;100.00;97627.91;7387515;19;20520;-50
2022/11/05 08:03:05;;;;;;;504.13;457.88;;;;;;;7.45;100.00;97631.41;7385331;19;20007;-47
2022/11/05 08:05:42;;;;;;;505.98;460.02;;;;;;;7.53;100.00;97640.50;7387597;19;20014;-50
2022/11/05 08:08:16;;;;;;;507.80;460.80;;;;;;;7.65;100.00;97623.28;7386811;19;20085;-47
2022/11/05 08:10:49;;;;;;;505.08;458.90;;;;;;;7.37;100.00;97636.22;7386457;19;20018;-47
2022/11/05 08:13:23;;;;;;;511.15;463.77;;;;;;;7.09;100.00;97641.31;7380878;19;20022;-46
2022/11/05 08:16:01;;;;;;;545.45;496.15;;;;;;;7.33;100.00;97639.97;7389087;19;20010;-48
2022/11/05 08:18:36;;;;;;;552.47;502.58;;;;;;;7.24;100.00;97641.31;7384400;19;20019;-58
2022/11/05 08:21:11;;;;;;;509.88;463.08;;;;;;;6.91;100.00;97627.47;7386342;19;20058;-47
2022/11/05 08:23:44;;;;;;;521.85;474.20;;;;;;;7.04;100.00;97649.44;7384060;19;20018;-48
2022/11/05 08:26:18;;;;;;;515.80;467.80;;;;;;;7.24;100.00;97641.31;7381838;19;20022;-48
2022/11/05 08:28:51;;;;;;;517.88;469.30;;;;;;;6.97;100.00;97658.53;7390031;19;20282;-47
2022/11/05 08:31:30;;;;;;;562.90;511.73;;;;;;;7.09;100.00;97650.00;7383905;19;20494;-48
2022/11/05 08:34:09;;;;;;;554.47;503.60;;;;;;;7.19;100.00;97651.19;7382478;19;20382;-47
2022/11/05 08:36:45;;;;;;;482.63;436.10;;;;;;;7.00;100.00;97654.91;7388622;19;20010;-47
2022/11/05 08:39:19;;;;;;;494.05;446.88;;;;;;;7.08;100.00;97658.78;7387285;19;20427;-47
2022/11/05 08:41:52;;;;;;;499.58;452.50;;;;;;;7.15;100.00;97657.53;7386160;19;20018;-48
2022/11/05 08:44:28;;;;;;;561.30;509.08;;;;;;;7.02;100.00;97666.94;7381156;19;20492;-47
2022/11/05 08:47:04;;;;;;;541.05;491.25;;;;;;;6.92;100.00;97663.13;7386830;19;20015;-47
2022/11/05 08:49:41;;;;;;;573.55;521.63;;;;;;;6.94;100.00;97660.44;7381785;19;20348;-51
2022/11/05 08:52:14;;;;;;;509.30;461.58;;;;;;;6.95;100.00;97668.22;7385431;19;20530;-47
2022/11/05 08:54:47;;;;;;;535.13;485.63;;;;;;;6.92;100.00;97670.16;7384469;19;20478;-48
2022/11/05 08:57:21;;;;;;;542.83;492.65;;;;;;;7.25;100.00;97674.38;7385197;19;20014;-49
2022/11/05 08:59:54;;;;;;;523.58;476.15;;;;;;;6.98;100.00;97678.50;7386285;19;20018;-50
2022/11/05 09:02:29;;;;;;;502.42;456.23;;;;;;;7.05;100.00;97677.25;7382856;19;20042;-51
2022/11/05 09:05:03;;;;;;;520.15;472.83;;;;;;;7.06;100.00;97684.16;7386027;19;20036;-48
2022/11/05 09:07:39;;;;;;;536.88;488.65;;;;;;;7.32;100.00;97672.28;7387671;19;20038;-49
2022/11/05 09:10:13;;;;;;;488.92;443.00;;;;;;;7.10;100.00;97693.50;7383193;19;20014;-48
2022/11/05 09:12:46;;;;;;;485.48;440.75;;;;;;;7.37;100.00;97697.25;7387052;19;20022;-49
2022/11/05 09:15:19;;;;;;;491.95;446.20;;;;;;;7.26;100.00;97698.75;7378310;19;20011;-54
2022/11/05 09:17:55;;;;;;;493.45;448.70;;;;;;;7.37;100.00;97702.47;7384933;19;20010;-50
2022/11/05 09:20:29;;;;;;;494.85;449.95;;;;;;;7.24;100.00;97709.28;7386883;19;20019;-52
2022/11/05 09:23:02;;;;;;;501.40;455.48;;;;;;;6.98;100.00;97709.88;7384554;19;20127;-54
2022/11/05 09:25:36;;;;;;;477.88;433.35;;;;;;;7.32;100.00;97709.72;7385308;19;20006;-48
2022/11/05 09:28:17;;;;;;;480.70;435.63;;;;;;;6.90;100.00;97714.66;7379431;19;20015;-56
2022/11/05 09:30:52;;;;;;;480.35;435.05;;;;;;;6.90;100.00;97719.03;7385431;19;20035;-48
2022/11/05 09:33:29;;;;;;;477.35;432.38;;;;;;;7.10;100.00;97721.44;7383692;19;20036;-49
2022/11/05 09:36:05;;;;;;;486.50;441.45;;;;;;;6.87;100.00;97727.91;7384315;19;20014;-50
2022/11/05 09:38:40;;;;;;;498.42;452.58;;;;;;;7.01;100.00;97727.16;7384146;19;20491;-47
2022/11/05 09:41:18;;;;;;;480.35;433.98;;;;;;;7.33;100.00;97724.50;7384196;19;20078;-48
2022/11/05 09:43:56;;;;;;;469.63;424.85;;;;;;;7.01;100.00;97714.94;7383833;19;20082;-47
2022/11/05 09:46:31;;;;;;;492.38;445.63;;;;;;;7.21;100.00;97722.53;7383916;19;20478;-48
2022/11/05 09:49:10;;;;;;;475.33;430.40;;;;;;;7.18;100.00;97724.50;7391006;19;20018;-48
2022/11/05 09:51:46;;;;;;;512.75;464.42;;;;;;;7.15;100.00;97729.88;7384889;19;20047;-47
2022/11/05 09:54:21;;;;;;;500.17;453.13;;;;;;;6.98;100.00;97728.16;7387124;19;20354;-48
2022/11/05 09:56:58;;;;;;;480.35;433.60;;;;;;;7.19;100.00;97724.41;7390876;19;20054;-58
2022/11/05 09:59:35;;;;;;;476.08;431.10;;;;;;;7.32;100.00;97735.03;7392771;19;20014;-47
2022/11/05 10:02:18;;;;;;;472.63;427.35;;;;;;;7.33;100.00;97732.34;7390474;19;20018;-48
2022/11/05 10:04:58;;;;;;;488.98;443.02;;;;;;;7.11;100.00;97728.34;7394243;19;20014;-47
2022/11/05 10:07:37;;;;;;;480.85;435.65;;;;;;;7.33;100.00;97734.97;7386110;19;20010;-48
2022/11/05 10:10:14;;;;;;;475.75;429.92;;;;;;;7.58;100.00;97742.31;7388007;19;20395;-49
2022/11/05 10:12:51;;;;;;;;;;;;;;;7.28;100.00;97744.81;7388656;19;20035;-50
2022/11/05 10:15:28;;;;;;;485.63;439.48;;;;;;;7.34;100.00;97748.88;7380962;19;20326;-48
2022/11/05 10:18:03;;;;;;;;;;;;;;;7.19;100.00;97744.47;7389825;19;20474;-47
2022/11/05 10:20:42;;;;;;;500.33;453.05;;;;;;;7.17;100.00;97747.16;7383018;19;19986;-49
2022/11/05 10:23:18;;;;;;;494.45;448.35;;;;;;;7.29;100.00;97748.28;7390797;19;20006;-48
2022/11/05 10:25:53;;;;;;;496.20;449.88;;;;;;;7.29;100.00;97745.66;7379178;19;20010;-52
2022/11/05 10:28:30;;;;;;;503.75;457.30;;;;;;;7.35;100.00;97742.69;7389267;19;20355;-49
2022/11/05 10:31:09;;;;;;;485.00;439.45;;;;;;;7.19;100.00;97744.47;7386700;19;20029;-46
2022/11/05 10:33:47;;;;;;;479.33;433.05;;;;;;;7.29;100.00;97746.50;7386621;19;20043;-47
2022/11/05 10:36:28;;;;;;;478.65;433.48;;;;;;;7.16;100.00;97740.25;7389585;19;20014;-53
2022/11/05 10:39:06;;;;;;;490.63;444.17;;;;;;;7.37;100.00;97743.47;7389253;19;20661;-50
2022/11/05 10:41:51;;;;;;;498.08;451.90;;;;;;;7.36;100.00;97752.25;7386141;19;20098;-49
2022/11/05 10:44:36;;;;;;;493.38;447.10;;;;;;;7.31;100.00;97752.50;7384445;19;20014;-47
2022/11/05 10:47:30;;;;;;;481.85;436.80;;;;;;;7.36;100.00;97752.25;7387973;19;20042;-48
2022/11/05 10:50:04;;;;;;;491.90;445.60;;;;;;;7.65;100.00;97752.31;7386314;19;20021;-48
2022/11/05 10:52:43;;;;;;;492.05;445.15;;;;;;;7.56;100.00;97754.59;7381927;19;20011;-52
2022/11/05 10:55:24;;;;;;;500.27;453.45;;;;;;;7.40;100.00;97759.81;7382091;19;20011;-50
2022/11/05 10:57:58;;;;;;;497.65;450.75;;;;;;;7.44;100.00;97758.75;7377840;19;20039;-46
2022/11/05 11:00:33;;;;;;;480.85;435.83;;;;;;;7.29;100.00;97758.75;7386969;19;20002;-47
2022/11/05 11:03:08;;;;;;;489.55;443.30;;;;;;;7.51;100.00;97764.50;7386637;19;20023;-48
2022/11/05 11:05:44;;;;;;;493.83;446.30;;;;;;;7.31;100.00;97762.09;7384811;19;20034;-49
2022/11/05 11:08:29;;;;;;;477.83;432.20;;;;;;;7.66;100.00;97756.63;7387517;19;20051;-53
2022/11/05 11:11:12;;;;;;;495.30;448.80;;;;;;;7.26;100.00;97758.91;7385269;19;20406;-50
2022/11/05 11:14:03;;;;;;;483.45;436.90;;;;;;;7.64;100.00;97761.13;7388087;19;20582;-49
2022/11/05 11:16:41;;;;;;;454.27;410.42;;;;;;;7.25;100.00;97765.91;7388297;19;20022;-51
2022/11/05 11:19:31;;;;;;;459.17;415.05;;;;;;;7.31;100.00;97759.50;7383406;19;20014;-58
2022/11/05 11:22:24;;;;;;;495.85;450.75;;;;;;;7.29;100.00;97764.81;7384213;19;20011;-49
2022/11/05 11:25:00;;;;;;;473.92;428.35;;;;;;;7.25;100.00;97776.34;7382650;19;20078;-53
2022/11/05 11:27:38;;;;;;;484.17;439.48;;;;;;;7.22;100.00;97779.16;7386443;19;20063;-48
2022/11/05 11:30:24;;;;;;;487.33;441.02;;;;;;;7.40;100.00;97778.13;7380607;19;20010;-50
2022/11/05 11:33:10;;;;;;;556.97;504.00;;;;;;;7.25;100.00;97786.00;7385971;19;20011;-55
2022/11/05 11:35:44;;;;;;;473.10;428.70;;;;;;;7.04;100.00;97781.91;7384657;19;20553;-48
2022/11/05 11:38:20;;;;;;;472.80;427.80;;;;;;;7.20;100.00;97788.84;7387048;19;20010;-51
2022/11/05 11:40:57;;;;;;;490.50;443.30;;;;;;;7.24;100.00;97779.91;7379711;19;20011;-54
2022/11/05 11:43:33;;;;;;;484.52;439.50;;;;;;;7.06;100.00;97780.06;7384715;19;20367;-49
2022/11/05 11:46:09;;;;;;;489.98;443.88;;;;;;;7.28;100.00;97781.44;7382124;19;20014;-50
2022/11/05 11:48:46;;;;;;;494.70;447.33;;;;;;;7.43;100.00;97791.06;7385063;19;20351;-52
2022/11/05 11:51:34;;;;;;;497.35;451.83;;;;;;;7.49;100.00;97789.88;7385574;19;20014;-58
2022/11/05 11:54:08;;;;;;;462.77;420.00;;;;;;;7.18;100.00;97788.06;7382303;19;20021;-52
2022/11/05 11:56:52;;;;;;;469.77;425.30;;;;;;;7.36;100.00;97801.94;7383566;19;20601;-52
2022/11/05 11:59:31;;;;;;;466.17;421.80;;;;;;;7.18;100.00;97806.38;7385794;19;20522;-50
2022/11/05 12:02:27;;;;;;;487.27;442.42;;;;;;;7.17;100.00;97814.31;7382783;19;20070;-56
2022/11/05 12:05:19;;;;;;;482.50;437.40;;;;;;;7.20;100.00;97815.00;7380129;19;20033;-51
2022/11/05 12:07:56;;;;;;;483.92;439.50;;;;;;;7.16;100.00;97813.47;7384989;19;20006;-49
2022/11/05 12:10:40;;;;;;;490.90;445.25;;;;;;;7.17;100.00;97809.09;7382488;19;20473;-54
2022/11/05 12:13:48;;;;;;;489.33;444.23;;;;;;;7.00;100.00;97815.22;7384784;19;20014;-51
2022/11/05 12:16:30;;;;;;;495.50;449.35;;;;;;;7.16;100.00;97821.31;7376728;19;20120;-51
2022/11/05 12:19:14;;;;;;;489.95;444.50;;;;;;;7.00;100.00;97819.59;7383584;19;20017;-50
2022/11/05 12:22:01;;;;;;;504.25;456.90;;;;;;;7.40;100.00;97827.84;7384215;19;20421;-53
2022/11/05 12:24:57;;;;;;;501.33;453.70;;;;;;;7.31;100.00;97825.72;7381656;19;20014;-57
2022/11/05 12:27:47;;;;;;;500.10;453.63;;;;;;;7.18;100.00;97832.53;7384207;19;20018;-49
2022/11/05 12:30:26;;;;;;;502.75;456.40;;;;;;;7.44;100.00;97834.63;7385186;19;20014;-50